FIN22D EFHK-EFOU
Flight info
| Callsign | FIN22D |
|---|---|
| Flight time | 1h 7m |
| Altitude | 38000 |
| Route | TEVRU Y75 SUVIB |
| Aircraft | A321/M-SADE1E2E3FGIJ1M3RWXYZ/LB1 |
Departure
| Time | 2026-04-24 09:59 |
|---|---|
| Airport | Helsinki Vantaa Airport (EFHK) |
Arrival
| Time | 2026-04-24 11:06 |
|---|---|
| Airport | Oulu Airport (EFOU) |
| Time | Latitude | Longitude | Altitude | Speed | Heading |
|---|---|---|---|---|---|
| 2026-04-24 09:27 | 60.31826 | 24.97046 | 167 ft | 0 kts | 243° |
| 2026-04-24 09:50 | 60.31828 | 24.97057 | 167 ft | 4 kts | 243° |
| 2026-04-24 09:50 | 60.31840 | 24.97106 | 167 ft | 4 kts | 253° |
| 2026-04-24 09:50 | 60.31842 | 24.97155 | 167 ft | 4 kts | 294° |
| 2026-04-24 09:50 | 60.31827 | 24.97192 | 166 ft | 2 kts | 332° |
| 2026-04-24 09:51 | 60.31821 | 24.97198 | 166 ft | 0 kts | 333° |
| 2026-04-24 09:53 | 60.31848 | 24.97170 | 166 ft | 10 kts | 332° |
| 2026-04-24 09:53 | 60.31935 | 24.97080 | 166 ft | 17 kts | 333° |
| 2026-04-24 09:53 | 60.32046 | 24.96964 | 167 ft | 18 kts | 332° |
| 2026-04-24 09:54 | 60.32159 | 24.96834 | 166 ft | 19 kts | 329° |
| 2026-04-24 09:54 | 60.32247 | 24.96712 | 167 ft | 13 kts | 295° |
| 2026-04-24 09:54 | 60.32200 | 24.96557 | 168 ft | 17 kts | 227° |
| 2026-04-24 09:54 | 60.32100 | 24.96333 | 168 ft | 26 kts | 229° |
| 2026-04-24 09:55 | 60.31973 | 24.96053 | 169 ft | 27 kts | 227° |
| 2026-04-24 09:55 | 60.31848 | 24.95780 | 169 ft | 27 kts | 227° |
| 2026-04-24 09:55 | 60.31720 | 24.95501 | 171 ft | 27 kts | 229° |
| 2026-04-24 09:55 | 60.31596 | 24.95222 | 170 ft | 24 kts | 227° |
| 2026-04-24 09:56 | 60.31488 | 24.94989 | 168 ft | 24 kts | 227° |
| 2026-04-24 09:56 | 60.31404 | 24.94787 | 165 ft | 15 kts | 250° |
| 2026-04-24 09:56 | 60.31444 | 24.94644 | 164 ft | 11 kts | 324° |
| 2026-04-24 09:56 | 60.31503 | 24.94531 | 163 ft | 10 kts | 323° |
| 2026-04-24 09:57 | 60.31541 | 24.94548 | 164 ft | 3 kts | 46° |
| 2026-04-24 09:57 | 60.31542 | 24.94549 | 164 ft | 0 kts | 46° |
| 2026-04-24 09:58 | 60.31610 | 24.94695 | 166 ft | 51 kts | 47° |
| 2026-04-24 09:58 | 60.32045 | 24.95651 | 174 ft | 131 kts | 48° |
| 2026-04-24 09:58 | 60.32751 | 24.97189 | 590 ft | 155 kts | 39° |
| 2026-04-24 09:59 | 60.33480 | 24.98799 | 1524 ft | 154 kts | 41° |
| 2026-04-24 09:59 | 60.34199 | 25.00392 | 2519 ft | 153 kts | 41° |
| 2026-04-24 09:59 | 60.34960 | 25.02061 | 3175 ft | 171 kts | 41° |
| 2026-04-24 09:59 | 60.35820 | 25.03939 | 3643 ft | 193 kts | 42° |
| 2026-04-24 10:00 | 60.36793 | 25.06069 | 4093 ft | 219 kts | 43° |
| 2026-04-24 10:00 | 60.37881 | 25.08458 | 4705 ft | 243 kts | 43° |
| 2026-04-24 10:00 | 60.39161 | 25.10783 | 5530 ft | 250 kts | 30° |
| 2026-04-24 10:00 | 60.40713 | 25.12317 | 6594 ft | 248 kts | 14° |
| 2026-04-24 10:01 | 60.42408 | 25.12908 | 7627 ft | 248 kts | 360° |
| 2026-04-24 10:01 | 60.44135 | 25.12963 | 8698 ft | 249 kts | 359° |
| 2026-04-24 10:01 | 60.45876 | 25.13019 | 9732 ft | 251 kts | 358° |
| 2026-04-24 10:01 | 60.47634 | 25.13075 | 10661 ft | 253 kts | 358° |
| 2026-04-24 10:02 | 60.49402 | 25.13117 | 11603 ft | 254 kts | 355° |
| 2026-04-24 10:02 | 60.51123 | 25.12543 | 12490 ft | 257 kts | 343° |
| 2026-04-24 10:02 | 60.52867 | 25.11063 | 12844 ft | 281 kts | 335° |
| 2026-04-24 10:02 | 60.54665 | 25.09325 | 13270 ft | 297 kts | 335° |
| 2026-04-24 10:03 | 60.56546 | 25.07485 | 13986 ft | 302 kts | 335° |
| 2026-04-24 10:03 | 60.58445 | 25.05619 | 14784 ft | 304 kts | 335° |
| 2026-04-24 10:03 | 60.60355 | 25.03748 | 15600 ft | 306 kts | 335° |
| 2026-04-24 10:03 | 60.62277 | 25.01871 | 16427 ft | 307 kts | 335° |
| 2026-04-24 10:04 | 60.64216 | 24.99980 | 17237 ft | 310 kts | 335° |
| 2026-04-24 10:04 | 60.66170 | 24.98081 | 18026 ft | 312 kts | 335° |
| 2026-04-24 10:04 | 60.68143 | 24.96169 | 18709 ft | 315 kts | 335° |
| 2026-04-24 10:04 | 60.70131 | 24.94238 | 19390 ft | 317 kts | 335° |
| 2026-04-24 10:05 | 60.72130 | 24.92289 | 20063 ft | 320 kts | 335° |
| 2026-04-24 10:05 | 60.74147 | 24.90312 | 20742 ft | 323 kts | 335° |
| 2026-04-24 10:05 | 60.76178 | 24.88319 | 21413 ft | 326 kts | 335° |
| 2026-04-24 10:05 | 60.78231 | 24.86299 | 22108 ft | 329 kts | 335° |
| 2026-04-24 10:06 | 60.80322 | 24.84351 | 22748 ft | 331 kts | 340° |
| 2026-04-24 10:06 | 60.84928 | 24.83107 | 23880 ft | 344 kts | 1° |
| 2026-04-24 10:06 | 60.87320 | 24.83678 | 24383 ft | 347 kts | 2° |
| 2026-04-24 10:07 | 60.89730 | 24.84268 | 24875 ft | 350 kts | 1° |
| 2026-04-24 10:07 | 60.92160 | 24.84853 | 25373 ft | 353 kts | 1° |
| 2026-04-24 10:07 | 60.94613 | 24.85433 | 25856 ft | 356 kts | 1° |
| 2026-04-24 10:07 | 60.97084 | 24.86014 | 26334 ft | 359 kts | 1° |
| 2026-04-24 10:08 | 60.99576 | 24.86600 | 26812 ft | 362 kts | 1° |
| 2026-04-24 10:08 | 61.02080 | 24.87191 | 27275 ft | 364 kts | 1° |
| 2026-04-24 10:08 | 61.04615 | 24.87791 | 27745 ft | 367 kts | 1° |
| 2026-04-24 10:08 | 61.07164 | 24.88397 | 28200 ft | 370 kts | 1° |
| 2026-04-24 10:09 | 61.09734 | 24.89008 | 28656 ft | 373 kts | 1° |
| 2026-04-24 10:09 | 61.12326 | 24.89625 | 29102 ft | 376 kts | 1° |
| 2026-04-24 10:09 | 61.14933 | 24.90254 | 29542 ft | 379 kts | 1° |
| 2026-04-24 10:09 | 61.17565 | 24.90893 | 29951 ft | 382 kts | 1° |
| 2026-04-24 10:10 | 61.20212 | 24.91531 | 30306 ft | 385 kts | 1° |
| 2026-04-24 10:10 | 61.22882 | 24.92172 | 30678 ft | 387 kts | 1° |
| 2026-04-24 10:10 | 61.25571 | 24.92818 | 31047 ft | 390 kts | 1° |
| 2026-04-24 10:10 | 61.28232 | 24.93462 | 31498 ft | 390 kts | 1° |
| 2026-04-24 10:11 | 61.30919 | 24.94120 | 32029 ft | 388 kts | 1° |
| 2026-04-24 10:11 | 61.33599 | 24.94776 | 32546 ft | 387 kts | 1° |
| 2026-04-24 10:11 | 61.36272 | 24.95427 | 33063 ft | 386 kts | 1° |
| 2026-04-24 10:11 | 61.38942 | 24.96078 | 33580 ft | 385 kts | 1° |
| 2026-04-24 10:12 | 61.41602 | 24.96725 | 34033 ft | 384 kts | 1° |
| 2026-04-24 10:12 | 61.44262 | 24.97377 | 34427 ft | 385 kts | 1° |
| 2026-04-24 10:12 | 61.46920 | 24.98029 | 34783 ft | 385 kts | 1° |
| 2026-04-24 10:12 | 61.49588 | 24.98682 | 35147 ft | 386 kts | 1° |
| 2026-04-24 10:13 | 61.52264 | 24.99336 | 35498 ft | 387 kts | 2° |
| 2026-04-24 10:13 | 61.54941 | 24.99993 | 35839 ft | 388 kts | 2° |
| 2026-04-24 10:13 | 61.57624 | 25.00655 | 36182 ft | 389 kts | 2° |
| 2026-04-24 10:13 | 61.60319 | 25.01318 | 36503 ft | 390 kts | 2° |
| 2026-04-24 10:14 | 61.63020 | 25.01622 | 36810 ft | 388 kts | 358° |
| 2026-04-24 10:14 | 61.65723 | 25.01715 | 37107 ft | 389 kts | 358° |
| 2026-04-24 10:14 | 61.68432 | 25.01812 | 37408 ft | 390 kts | 358° |
| 2026-04-24 10:14 | 61.71147 | 25.01911 | 37677 ft | 391 kts | 358° |
| 2026-04-24 10:15 | 61.72954 | 25.01976 | 37775 ft | 393 kts | 358° |
| 2026-04-24 10:15 | 61.78415 | 25.02192 | 37821 ft | 392 kts | 358° |
| 2026-04-24 10:16 | 61.83870 | 25.02408 | 37815 ft | 392 kts | 358° |
| 2026-04-24 10:16 | 61.89326 | 25.02609 | 37811 ft | 392 kts | 358° |
| 2026-04-24 10:17 | 61.94779 | 25.02816 | 37817 ft | 392 kts | 358° |
| 2026-04-24 10:17 | 62.00246 | 25.03032 | 37819 ft | 393 kts | 358° |
| 2026-04-24 10:18 | 62.05715 | 25.03241 | 37828 ft | 393 kts | 358° |
| 2026-04-24 10:18 | 62.11194 | 25.03448 | 37838 ft | 394 kts | 358° |
| 2026-04-24 10:19 | 62.16677 | 25.03661 | 37846 ft | 394 kts | 358° |
| 2026-04-24 10:19 | 62.22126 | 25.03872 | 37848 ft | 394 kts | 358° |
| 2026-04-24 10:20 | 62.24118 | 25.03950 | 37845 ft | 394 kts | 358° |
| 2026-04-24 10:20 | 62.29605 | 25.04167 | 37850 ft | 394 kts | 358° |
| 2026-04-24 10:21 | 62.35085 | 25.04381 | 37836 ft | 394 kts | 358° |
| 2026-04-24 10:21 | 62.40560 | 25.04578 | 37840 ft | 394 kts | 358° |
| 2026-04-24 10:22 | 62.46043 | 25.04779 | 37839 ft | 394 kts | 358° |
| 2026-04-24 10:22 | 62.51523 | 25.05005 | 37840 ft | 394 kts | 358° |
| 2026-04-24 10:23 | 62.56999 | 25.05229 | 37843 ft | 394 kts | 358° |
| 2026-04-24 10:23 | 62.62482 | 25.05438 | 37857 ft | 394 kts | 358° |
| 2026-04-24 10:24 | 62.67961 | 25.05654 | 37851 ft | 394 kts | 358° |
| 2026-04-24 10:24 | 62.73446 | 25.05863 | 37852 ft | 394 kts | 358° |
| 2026-04-24 10:25 | 62.78930 | 25.06073 | 37851 ft | 394 kts | 358° |
| 2026-04-24 10:25 | 62.84419 | 25.06284 | 37853 ft | 394 kts | 358° |
| 2026-04-24 10:26 | 62.89908 | 25.06495 | 37854 ft | 394 kts | 358° |
| 2026-04-24 10:26 | 62.95401 | 25.06716 | 37857 ft | 395 kts | 358° |
| 2026-04-24 10:27 | 63.00895 | 25.06939 | 37854 ft | 395 kts | 358° |
| 2026-04-24 10:27 | 63.06394 | 25.07173 | 37859 ft | 395 kts | 359° |
| 2026-04-24 10:28 | 63.11934 | 25.07404 | 37851 ft | 396 kts | 358° |
| 2026-04-24 10:28 | 63.17409 | 25.07628 | 37521 ft | 395 kts | 358° |
| 2026-04-24 10:28 | 63.20154 | 25.07740 | 37255 ft | 393 kts | 358° |
| 2026-04-24 10:29 | 63.22883 | 25.07850 | 36986 ft | 392 kts | 358° |
| 2026-04-24 10:29 | 63.25607 | 25.07960 | 36735 ft | 390 kts | 358° |
| 2026-04-24 10:29 | 63.28317 | 25.08071 | 36475 ft | 389 kts | 358° |
| 2026-04-24 10:29 | 63.31015 | 25.08182 | 36230 ft | 387 kts | 358° |
| 2026-04-24 10:30 | 63.33706 | 25.08292 | 35977 ft | 386 kts | 358° |
| 2026-04-24 10:30 | 63.36383 | 25.08401 | 35734 ft | 384 kts | 357° |
| 2026-04-24 10:30 | 63.39054 | 25.08511 | 35382 ft | 383 kts | 357° |
| 2026-04-24 10:30 | 63.41733 | 25.08615 | 34618 ft | 387 kts | 356° |
| 2026-04-24 10:31 | 63.44435 | 25.08717 | 33809 ft | 390 kts | 356° |
| 2026-04-24 10:31 | 63.47140 | 25.08828 | 33129 ft | 386 kts | 356° |
| 2026-04-24 10:31 | 63.49790 | 25.08948 | 32555 ft | 375 kts | 356° |
| 2026-04-24 10:31 | 63.52350 | 25.09073 | 32094 ft | 361 kts | 356° |
| 2026-04-24 10:32 | 63.54828 | 25.09186 | 31323 ft | 353 kts | 356° |
| 2026-04-24 10:32 | 63.57261 | 25.09281 | 30531 ft | 345 kts | 355° |
| 2026-04-24 10:32 | 63.59657 | 25.09370 | 29875 ft | 342 kts | 355° |
| 2026-04-24 10:32 | 63.62028 | 25.09461 | 29312 ft | 338 kts | 355° |
| 2026-04-24 10:33 | 63.64363 | 25.09552 | 28764 ft | 334 kts | 355° |
| 2026-04-24 10:33 | 63.66671 | 25.09640 | 28214 ft | 330 kts | 355° |
| 2026-04-24 10:33 | 63.68957 | 25.09734 | 27667 ft | 327 kts | 355° |
| 2026-04-24 10:33 | 63.71224 | 25.09834 | 27132 ft | 324 kts | 355° |
| 2026-04-24 10:34 | 63.73469 | 25.09934 | 26610 ft | 321 kts | 355° |
| 2026-04-24 10:34 | 63.75694 | 25.10031 | 26108 ft | 318 kts | 355° |
| 2026-04-24 10:34 | 63.77903 | 25.10127 | 25641 ft | 316 kts | 355° |
| 2026-04-24 10:34 | 63.80093 | 25.10219 | 25179 ft | 313 kts | 355° |
| 2026-04-24 10:35 | 63.82261 | 25.10306 | 24946 ft | 312 kts | 355° |
| 2026-04-24 10:35 | 63.84443 | 25.10387 | 24704 ft | 312 kts | 355° |
| 2026-04-24 10:35 | 63.86589 | 25.10472 | 24464 ft | 312 kts | 355° |
| 2026-04-24 10:35 | 63.88751 | 25.10563 | 24228 ft | 309 kts | 355° |
| 2026-04-24 10:36 | 63.90880 | 25.10657 | 23880 ft | 304 kts | 355° |
| 2026-04-24 10:36 | 63.93008 | 25.10752 | 23477 ft | 301 kts | 355° |
| 2026-04-24 10:36 | 63.95090 | 25.10843 | 23025 ft | 297 kts | 355° |
| 2026-04-24 10:36 | 63.97144 | 25.10929 | 22613 ft | 293 kts | 355° |
| 2026-04-24 10:37 | 63.99161 | 25.11017 | 22210 ft | 288 kts | 355° |
| 2026-04-24 10:37 | 64.01147 | 25.11106 | 21802 ft | 283 kts | 355° |
| 2026-04-24 10:37 | 64.03104 | 25.11180 | 21418 ft | 278 kts | 355° |
| 2026-04-24 10:37 | 64.05029 | 25.11249 | 21001 ft | 275 kts | 355° |
| 2026-04-24 10:38 | 64.06933 | 25.11323 | 20588 ft | 272 kts | 356° |
| 2026-04-24 10:38 | 64.08820 | 25.11402 | 20192 ft | 270 kts | 356° |
| 2026-04-24 10:38 | 64.10698 | 25.11483 | 19782 ft | 269 kts | 356° |
| 2026-04-24 10:38 | 64.12570 | 25.11567 | 19374 ft | 268 kts | 356° |
| 2026-04-24 10:39 | 64.14433 | 25.11653 | 18958 ft | 268 kts | 356° |
| 2026-04-24 10:39 | 64.16296 | 25.11735 | 18550 ft | 267 kts | 356° |
| 2026-04-24 10:39 | 64.18146 | 25.11814 | 18131 ft | 266 kts | 356° |
| 2026-04-24 10:39 | 64.19994 | 25.11888 | 17674 ft | 265 kts | 356° |
| 2026-04-24 10:40 | 64.21838 | 25.11965 | 17253 ft | 264 kts | 356° |
| 2026-04-24 10:40 | 64.23672 | 25.12045 | 16853 ft | 263 kts | 357° |
| 2026-04-24 10:40 | 64.25503 | 25.12123 | 16443 ft | 262 kts | 357° |
| 2026-04-24 10:40 | 64.27322 | 25.12200 | 16044 ft | 261 kts | 357° |
| 2026-04-24 10:41 | 64.29114 | 25.12279 | 15639 ft | 260 kts | 357° |
| 2026-04-24 10:41 | 64.30917 | 25.12362 | 15245 ft | 259 kts | 357° |
| 2026-04-24 10:41 | 64.32718 | 25.12444 | 14842 ft | 258 kts | 358° |
| 2026-04-24 10:41 | 64.34510 | 25.12524 | 14441 ft | 257 kts | 358° |
| 2026-04-24 10:42 | 64.36295 | 25.12600 | 14046 ft | 256 kts | 358° |
| 2026-04-24 10:42 | 64.38073 | 25.12674 | 13653 ft | 255 kts | 358° |
| 2026-04-24 10:42 | 64.39846 | 25.12745 | 13229 ft | 255 kts | 358° |
| 2026-04-24 10:42 | 64.41619 | 25.12860 | 12831 ft | 256 kts | 1° |
| 2026-04-24 10:43 | 64.43372 | 25.13676 | 12432 ft | 260 kts | 13° |
| 2026-04-24 10:43 | 64.45032 | 25.15436 | 12030 ft | 266 kts | 25° |
| 2026-04-24 10:43 | 64.46606 | 25.17699 | 11631 ft | 266 kts | 25° |
| 2026-04-24 10:43 | 64.48180 | 25.19952 | 11229 ft | 266 kts | 25° |
| 2026-04-24 10:44 | 64.49753 | 25.22195 | 10823 ft | 265 kts | 26° |
| 2026-04-24 10:44 | 64.51325 | 25.24431 | 10434 ft | 265 kts | 26° |
| 2026-04-24 10:44 | 64.52893 | 25.26663 | 10105 ft | 262 kts | 26° |
| 2026-04-24 10:44 | 64.54440 | 25.28871 | 10032 ft | 262 kts | 26° |
| 2026-04-24 10:45 | 64.55999 | 25.31094 | 9934 ft | 263 kts | 26° |
| 2026-04-24 10:45 | 64.57555 | 25.33320 | 9811 ft | 263 kts | 26° |
| 2026-04-24 10:45 | 64.59091 | 25.35526 | 9624 ft | 256 kts | 26° |
| 2026-04-24 10:45 | 64.60600 | 25.37697 | 9239 ft | 254 kts | 27° |
| 2026-04-24 10:46 | 64.62100 | 25.39854 | 8864 ft | 253 kts | 27° |
| 2026-04-24 10:46 | 64.63596 | 25.42006 | 8508 ft | 252 kts | 27° |
| 2026-04-24 10:46 | 64.65082 | 25.44147 | 8140 ft | 251 kts | 28° |
| 2026-04-24 10:46 | 64.66562 | 25.46281 | 7794 ft | 249 kts | 28° |
| 2026-04-24 10:47 | 64.68012 | 25.48375 | 7444 ft | 248 kts | 28° |
| 2026-04-24 10:47 | 64.69478 | 25.50496 | 7091 ft | 247 kts | 28° |
| 2026-04-24 10:47 | 64.70939 | 25.52619 | 6744 ft | 247 kts | 29° |
| 2026-04-24 10:47 | 64.72397 | 25.54739 | 6385 ft | 247 kts | 29° |
| 2026-04-24 10:48 | 64.73858 | 25.56859 | 6024 ft | 247 kts | 29° |
| 2026-04-24 10:48 | 64.75314 | 25.58973 | 5667 ft | 246 kts | 30° |
| 2026-04-24 10:48 | 64.76765 | 25.61084 | 5319 ft | 245 kts | 30° |
| 2026-04-24 10:48 | 64.78208 | 25.63163 | 4949 ft | 240 kts | 29° |
| 2026-04-24 10:49 | 64.79604 | 25.65157 | 4590 ft | 229 kts | 28° |
| 2026-04-24 10:49 | 64.80930 | 25.67044 | 4247 ft | 218 kts | 28° |
| 2026-04-24 10:49 | 64.82245 | 25.68751 | 3922 ft | 214 kts | 16° |
| 2026-04-24 10:49 | 64.83690 | 25.68856 | 3612 ft | 208 kts | 343° |
| 2026-04-24 10:50 | 64.84871 | 25.67050 | 3285 ft | 204 kts | 311° |
| 2026-04-24 10:50 | 64.85615 | 25.64305 | 2985 ft | 195 kts | 303° |
| 2026-04-24 10:50 | 64.86296 | 25.61633 | 2716 ft | 184 kts | 303° |
| 2026-04-24 10:50 | 64.86932 | 25.59145 | 2447 ft | 171 kts | 304° |
| 2026-04-24 10:51 | 64.87525 | 25.56834 | 2171 ft | 158 kts | 303° |
| 2026-04-24 10:51 | 64.88081 | 25.54671 | 1923 ft | 152 kts | 302° |
| 2026-04-24 10:51 | 64.88623 | 25.52563 | 1726 ft | 148 kts | 302° |
| 2026-04-24 10:51 | 64.89132 | 25.50579 | 1473 ft | 136 kts | 302° |
| 2026-04-24 10:52 | 64.89611 | 25.48708 | 1292 ft | 128 kts | 303° |
| 2026-04-24 10:52 | 64.90068 | 25.46926 | 1088 ft | 125 kts | 303° |
| 2026-04-24 10:52 | 64.90515 | 25.45173 | 922 ft | 125 kts | 302° |
| 2026-04-24 10:52 | 64.90960 | 25.43437 | 749 ft | 123 kts | 302° |
| 2026-04-24 10:53 | 64.91254 | 25.42299 | 595 ft | 121 kts | 303° |
| 2026-04-24 10:53 | 64.91829 | 25.40056 | 346 ft | 121 kts | 302° |
| 2026-04-24 10:53 | 64.92266 | 25.38367 | 171 ft | 120 kts | 302° |
| 2026-04-24 10:53 | 64.92555 | 25.37226 | 57 ft | 120 kts | 303° |
| 2026-04-24 10:54 | 64.92975 | 25.35609 | 168 ft | 126 kts | 305° |
| 2026-04-24 10:54 | 64.93472 | 25.33750 | 1060 ft | 137 kts | 302° |
| 2026-04-24 10:54 | 64.93984 | 25.31854 | 1966 ft | 144 kts | 304° |
| 2026-04-24 10:54 | 64.94559 | 25.29631 | 2222 ft | 173 kts | 303° |
| 2026-04-24 10:55 | 64.95223 | 25.27041 | 2304 ft | 191 kts | 306° |
| 2026-04-24 10:55 | 64.96280 | 25.25138 | 2289 ft | 201 kts | 341° |
| 2026-04-24 10:55 | 64.97677 | 25.25130 | 2271 ft | 204 kts | 13° |
| 2026-04-24 10:55 | 64.98988 | 25.26363 | 2289 ft | 202 kts | 21° |
| 2026-04-24 10:56 | 65.00231 | 25.27964 | 2299 ft | 204 kts | 28° |
| 2026-04-24 10:56 | 65.01445 | 25.29719 | 2303 ft | 205 kts | 28° |
| 2026-04-24 10:56 | 65.02658 | 25.31501 | 2307 ft | 206 kts | 30° |
| 2026-04-24 10:56 | 65.03618 | 25.34011 | 2305 ft | 212 kts | 63° |
| 2026-04-24 10:57 | 65.03824 | 25.37485 | 2307 ft | 220 kts | 96° |
| 2026-04-24 10:57 | 65.03228 | 25.40936 | 2332 ft | 244 kts | 123° |
| 2026-04-24 10:57 | 65.02209 | 25.44304 | 2318 ft | 256 kts | 124° |
| 2026-04-24 10:57 | 65.01167 | 25.47725 | 2304 ft | 256 kts | 125° |
| 2026-04-24 10:58 | 65.00125 | 25.51141 | 2298 ft | 256 kts | 124° |
| 2026-04-24 10:58 | 64.99083 | 25.54559 | 2310 ft | 257 kts | 125° |
| 2026-04-24 10:58 | 64.98038 | 25.57988 | 2306 ft | 257 kts | 124° |
| 2026-04-24 10:58 | 64.96995 | 25.61417 | 2302 ft | 256 kts | 124° |
| 2026-04-24 10:59 | 64.95954 | 25.64827 | 2303 ft | 256 kts | 125° |
| 2026-04-24 10:59 | 64.94910 | 25.68242 | 2294 ft | 256 kts | 124° |
| 2026-04-24 10:59 | 64.93873 | 25.71645 | 2300 ft | 254 kts | 124° |
| 2026-04-24 10:59 | 64.92862 | 25.74960 | 2296 ft | 243 kts | 124° |
| 2026-04-24 11:00 | 64.91814 | 25.77959 | 2290 ft | 232 kts | 142° |
| 2026-04-24 11:00 | 64.90384 | 25.79283 | 2286 ft | 217 kts | 180° |
| 2026-04-24 11:00 | 64.88957 | 25.78539 | 2299 ft | 211 kts | 213° |
| 2026-04-24 11:00 | 64.87709 | 25.76707 | 2308 ft | 212 kts | 215° |
| 2026-04-24 11:01 | 64.86455 | 25.74892 | 2329 ft | 212 kts | 215° |
| 2026-04-24 11:01 | 64.85310 | 25.72817 | 2295 ft | 202 kts | 238° |
| 2026-04-24 11:01 | 64.84790 | 25.69955 | 2288 ft | 184 kts | 267° |
| 2026-04-24 11:01 | 64.84933 | 25.67082 | 2301 ft | 174 kts | 294° |
| 2026-04-24 11:02 | 64.85527 | 25.64635 | 2341 ft | 171 kts | 304° |
| 2026-04-24 11:02 | 64.86150 | 25.62242 | 2316 ft | 172 kts | 303° |
| 2026-04-24 11:02 | 64.86767 | 25.59844 | 2292 ft | 165 kts | 302° |
| 2026-04-24 11:02 | 64.87337 | 25.57621 | 2288 ft | 154 kts | 303° |
| 2026-04-24 11:03 | 64.87889 | 25.55474 | 2050 ft | 151 kts | 303° |
| 2026-04-24 11:03 | 64.88426 | 25.53376 | 1833 ft | 149 kts | 302° |
| 2026-04-24 11:03 | 64.88958 | 25.51302 | 1586 ft | 145 kts | 302° |
| 2026-04-24 11:03 | 64.89461 | 25.49349 | 1416 ft | 131 kts | 303° |
| 2026-04-24 11:04 | 64.89919 | 25.47545 | 1116 ft | 125 kts | 301° |
| 2026-04-24 11:04 | 64.90361 | 25.45809 | 947 ft | 123 kts | 301° |
| 2026-04-24 11:04 | 64.90807 | 25.44100 | 795 ft | 122 kts | 302° |
| 2026-04-24 11:04 | 64.91241 | 25.42394 | 621 ft | 120 kts | 302° |
| 2026-04-24 11:05 | 64.91669 | 25.40718 | 410 ft | 118 kts | 303° |
| 2026-04-24 11:05 | 64.92091 | 25.39057 | 237 ft | 118 kts | 303° |
| 2026-04-24 11:05 | 64.92513 | 25.37392 | 60 ft | 118 kts | 303° |
| 2026-04-24 11:05 | 64.92880 | 25.35965 | 53 ft | 80 kts | 300° |
| 2026-04-24 11:06 | 64.93049 | 25.35334 | 54 ft | 17 kts | 317° |
| 2026-04-24 11:06 | 64.93128 | 25.35220 | 51 ft | 13 kts | 341° |
| 2026-04-24 11:06 | 64.93203 | 25.35242 | 51 ft | 10 kts | 36° |
| 2026-04-24 11:06 | 64.93216 | 25.35401 | 51 ft | 12 kts | 118° |
| 2026-04-24 11:07 | 64.93108 | 25.35825 | 51 ft | 18 kts | 122° |
| 2026-04-24 11:07 | 64.93046 | 25.36067 | 50 ft | 16 kts | 121° |
| 2026-04-24 11:07 | 64.92988 | 25.36293 | 51 ft | 17 kts | 120° |
| 2026-04-24 11:08 | 64.92973 | 25.36353 | 51 ft | 3 kts | 121° |
| 2026-04-24 11:08 | 64.92942 | 25.36476 | 51 ft | 12 kts | 121° |
| 2026-04-24 11:08 | 64.92912 | 25.36592 | 51 ft | 0 kts | 122° |
| 2026-04-24 11:10 | 64.92912 | 25.36593 | 51 ft | 2 kts | 122° |
| 2026-04-24 11:10 | 64.92864 | 25.36779 | 51 ft | 16 kts | 121° |
| 2026-04-24 11:10 | 64.92809 | 25.36996 | 51 ft | 16 kts | 121° |
| 2026-04-24 11:10 | 64.92751 | 25.37225 | 47 ft | 16 kts | 121° |
| 2026-04-24 11:11 | 64.92698 | 25.37430 | 50 ft | 6 kts | 121° |
| 2026-04-24 11:11 | 64.92695 | 25.37479 | 51 ft | 7 kts | 21° |
| 2026-04-24 11:11 | 64.92733 | 25.37514 | 51 ft | 7 kts | 29° |
| 2026-04-24 11:11 | 64.92752 | 25.37539 | 51 ft | 0 kts | 30° |